Time;durP1;ratioP1;P1;durP2;ratioP2;P2;SDS_P1;SDS_P2;PMS_P1;PMS_P2;Temp;Humidity;BMP_temperature;BMP_pressure;BME280_temperature;BME280_humidity;BME280_pressure;Samples;Min_cycle;Max_cycle;Signal;HPM_P1;HPM_P2
2023/01/15 00:00:02;;;;;;;22.70;16.77;;;6.50;85.80;;;;;;10791673;33;20012;-74
2023/01/15 00:06:07;;;;;;;19.65;15.38;;;6.40;85.80;;;;;;10791505;33;20335;-73
2023/01/15 00:12:10;;;;;;;25.45;21.75;;;6.40;85.80;;;;;;10791353;33;20158;-73
2023/01/15 00:18:12;;;;;;;26.90;19.62;;;6.40;85.90;;;;;;10779951;33;20021;-73
2023/01/15 00:30:40;;;;;;;22.05;16.37;;;6.40;85.90;;;;;;10755519;33;20170;-74
2023/01/15 00:36:42;;;;;;;19.40;16.20;;;6.40;85.90;;;;;;10754185;33;20021;-74
2023/01/15 00:42:44;;;;;;;21.92;16.67;;;6.40;85.90;;;;;;10750067;33;20017;-74
2023/01/15 00:48:59;;;;;;;34.60;29.60;;;6.40;85.90;;;;;;10753721;33;20342;-74
2023/01/15 00:55:02;;;;;;;22.77;18.98;;;6.40;86.00;;;;;;10753621;33;20028;-74
2023/01/15 01:01:04;;;;;;;20.60;17.08;;;6.50;86.00;;;;;;10750207;33;20039;-73
2023/01/15 01:07:06;;;;;;;20.20;16.87;;;6.40;85.90;;;;;;10740840;32;20048;-74
2023/01/15 01:13:09;;;;;;;19.23;15.45;;;6.40;86.00;;;;;;10753139;33;20017;-73
2023/01/15 01:19:23;;;;;;;27.83;20.88;;;6.40;86.00;;;;;;10748432;33;20025;-73
2023/01/15 01:25:24;;;;;;;19.60;17.17;;;6.40;86.10;;;;;;10752746;33;20421;-73
2023/01/15 01:31:26;;;;;;;20.85;16.87;;;6.40;86.10;;;;;;10752500;33;20047;-74
2023/01/15 01:37:29;;;;;;;21.52;16.20;;;6.50;86.20;;;;;;10726539;32;20033;-73
2023/01/15 01:43:50;;;;;;;18.40;13.43;;;6.40;86.10;;;;;;10751407;33;20021;-73
2023/01/15 01:49:58;;;;;;;31.98;26.25;;;6.20;86.30;;;;;;10751904;33;20020;-73
2023/01/15 01:56:00;;;;;;;26.52;20.98;;;6.20;86.50;;;;;;10751374;33;20047;-73
2023/01/15 02:02:02;;;;;;;24.15;17.30;;;6.10;86.90;;;;;;10749533;33;20024;-76
2023/01/15 02:08:06;;;;;;;20.80;16.73;;;6.20;87.10;;;;;;10751760;33;20079;-76
2023/01/15 02:14:24;;;;;;;26.77;20.08;;;6.20;87.00;;;;;;10738515;33;20051;-76
2023/01/15 02:20:46;;;;;;;29.70;19.55;;;6.20;86.90;;;;;;10751184;33;20025;-76
2023/01/15 02:27:06;;;;;;;22.73;17.27;;;6.30;87.20;;;;;;10751467;33;20410;-76
2023/01/15 02:33:19;;;;;;;22.52;17.75;;;6.40;87.00;;;;;;10751197;33;20021;-76
2023/01/15 02:39:25;;;;;;;28.15;18.98;;;6.40;87.00;;;;;;10751022;33;20021;-76
2023/01/15 02:45:31;;;;;;;17.45;15.20;;;6.40;87.10;;;;;;10738029;33;20051;-76
2023/01/15 02:52:00;;;;;;;17.42;13.20;;;6.40;87.10;;;;;;10750729;33;20028;-76
2023/01/15 02:58:07;;;;;;;16.50;12.43;;;6.40;86.90;;;;;;10750751;33;20025;-76
2023/01/15 03:04:42;;;;;;;16.25;13.18;;;6.40;86.90;;;;;;10738587;32;20055;-76
2023/01/15 03:10:54;;;;;;;20.12;14.18;;;6.30;87.00;;;;;;10752983;33;20032;-76
2023/01/15 03:17:03;;;;;;;21.33;13.02;;;6.40;87.20;;;;;;10756579;33;20021;-76
2023/01/15 03:23:10;;;;;;;17.23;14.35;;;6.40;87.00;;;;;;10743307;33;20047;-76
2023/01/15 03:29:13;;;;;;;17.08;13.23;;;6.40;87.00;;;;;;10752108;33;20024;-76
2023/01/15 03:35:52;;;;;;;17.65;14.02;;;6.40;86.90;;;;;;10755965;33;20343;-76
2023/01/15 03:42:26;;;;;;;19.45;15.18;;;6.30;87.10;;;;;;10743047;33;20045;-77
2023/01/15 03:48:45;;;;;;;14.73;11.18;;;6.40;87.10;;;;;;10755607;33;20043;-76
2023/01/15 03:54:50;;;;;;;18.10;13.62;;;6.40;87.10;;;;;;10755441;33;20017;-76
2023/01/15 04:00:58;;;;;;;18.02;13.50;;;6.50;87.10;;;;;;10741858;33;20409;-76
2023/01/15 04:07:02;;;;;;;16.57;12.03;;;6.40;87.00;;;;;;10755103;33;20050;-76
2023/01/15 04:13:05;;;;;;;15.35;11.20;;;6.40;87.00;;;;;;10755029;33;20168;-76
2023/01/15 04:19:07;;;;;;;20.92;15.07;;;6.30;87.00;;;;;;10741635;33;20425;-76
2023/01/15 04:25:11;;;;;;;16.23;12.37;;;6.30;87.10;;;;;;10754633;33;20025;-76
2023/01/15 04:31:22;;;;;;;13.27;11.38;;;6.30;87.10;;;;;;10751213;33;20032;-76
2023/01/15 04:37:24;;;;;;;18.27;13.57;;;6.40;87.10;;;;;;10754489;33;20028;-76
2023/01/15 04:49:46;;;;;;;14.20;10.02;;;6.30;87.20;;;;;;10750339;33;20346;-76
2023/01/15 04:55:48;;;;;;;13.10;10.10;;;6.20;87.10;;;;;;10753738;33;20013;-76
2023/01/15 05:02:01;;;;;;;14.95;10.27;;;6.30;87.10;;;;;;10753602;33;20407;-76
2023/01/15 05:08:04;;;;;;;13.75;9.35;;;6.30;87.10;;;;;;10753308;33;20320;-76
2023/01/15 05:14:32;;;;;;;14.13;12.05;;;6.20;87.10;;;;;;10740187;33;20362;-76
2023/01/15 05:20:37;;;;;;;14.75;11.32;;;6.20;87.10;;;;;;10752934;33;20013;-76
2023/01/15 05:26:40;;;;;;;12.27;9.15;;;6.20;87.10;;;;;;10752890;33;20020;-76
2023/01/15 05:32:41;;;;;;;13.40;9.27;;;6.20;87.10;;;;;;10751945;33;20051;-76
2023/01/15 05:38:43;;;;;;;11.88;8.10;;;6.10;87.10;;;;;;10751747;33;20339;-76
2023/01/15 05:44:46;;;;;;;15.15;9.45;;;6.00;87.20;;;;;;10740264;32;20037;-76
2023/01/15 05:50:48;;;;;;;14.30;10.07;;;6.00;87.30;;;;;;10751953;33;20048;-76
2023/01/15 05:56:50;;;;;;;10.70;8.07;;;6.10;87.20;;;;;;10748104;33;20020;-76
2023/01/15 06:02:52;;;;;;;13.88;11.35;;;6.10;87.20;;;;;;10750755;33;20342;-76
2023/01/15 06:08:54;;;;;;;11.60;8.30;;;6.10;87.20;;;;;;10737719;33;20037;-76
2023/01/15 06:14:56;;;;;;;15.55;11.65;;;6.10;87.20;;;;;;10753458;33;20055;-76
2023/01/15 06:21:03;;;;;;;13.70;11.05;;;6.20;87.20;;;;;;10751388;33;20346;-76
2023/01/15 06:27:05;;;;;;;16.52;8.75;;;6.20;87.20;;;;;;10751194;33;20158;-76
2023/01/15 06:33:07;;;;;;;12.48;8.48;;;6.20;87.20;;;;;;10738132;33;20419;-76
2023/01/15 06:39:09;;;;;;;9.88;7.93;;;6.20;87.20;;;;;;10750093;33;20016;-76
2023/01/15 06:51:31;;;;;;;14.35;10.88;;;6.10;87.20;;;;;;10755908;33;20395;-76
2023/01/15 06:57:33;;;;;;;13.80;10.15;;;6.10;87.20;;;;;;10756303;33;20025;-76
2023/01/15 07:03:36;;;;;;;14.57;10.07;;;6.10;87.20;;;;;;10756964;33;20323;-76
2023/01/15 07:09:38;;;;;;;19.42;13.52;;;6.10;87.30;;;;;;10753157;33;20020;-77
2023/01/15 07:15:40;;;;;;;16.50;10.90;;;6.20;87.30;;;;;;10753396;33;20043;-77
2023/01/15 07:21:43;;;;;;;16.20;11.12;;;6.10;87.40;;;;;;10756419;33;20029;-77
2023/01/15 07:27:48;;;;;;;14.10;11.60;;;6.20;87.40;;;;;;10743239;33;20020;-77
2023/01/15 07:33:50;;;;;;;13.32;10.35;;;6.20;87.30;;;;;;10753053;33;20033;-77
2023/01/15 07:40:00;;;;;;;12.20;8.70;;;6.20;87.40;;;;;;10742371;33;20102;-77
2023/01/15 07:52:48;;;;;;;12.93;10.18;;;6.20;87.20;;;;;;10754337;33;20031;-74
2023/01/15 07:58:50;;;;;;;13.38;8.20;;;6.20;87.30;;;;;;10755540;33;20048;-74
2023/01/15 08:04:53;;;;;;;14.55;11.32;;;6.20;87.20;;;;;;10755083;33;20013;-74
2023/01/15 08:17:20;;;;;;;17.25;11.70;;;6.20;87.10;;;;;;10755246;33;20043;-74
2023/01/15 08:23:22;;;;;;;18.10;10.40;;;6.40;87.30;;;;;;10763758;27;20055;-74
2023/01/15 08:29:24;;;;;;;19.25;15.05;;;6.50;87.30;;;;;;10787319;33;20029;-74
2023/01/15 08:35:26;;;;;;;13.85;10.13;;;6.50;87.20;;;;;;10790709;33;20016;-74
2023/01/15 08:41:29;;;;;;;17.58;12.75;;;6.50;87.20;;;;;;10777514;33;20020;-74
2023/01/15 08:47:59;;;;;;;19.48;13.43;;;6.50;87.30;;;;;;10790265;33;20017;-74
2023/01/15 08:54:01;;;;;;;15.60;11.18;;;6.60;87.30;;;;;;10790389;33;20028;-74
2023/01/15 09:00:04;;;;;;;16.30;12.32;;;6.50;87.10;;;;;;10789940;33;20000;-74
2023/01/15 09:06:12;;;;;;;15.63;11.95;;;6.50;87.00;;;;;;10788815;33;20043;-74
2023/01/15 09:12:14;;;;;;;17.95;11.02;;;6.50;87.10;;;;;;10789663;33;20432;-74
2023/01/15 09:18:18;;;;;;;14.60;11.90;;;6.50;87.10;;;;;;10776591;33;20075;-74
2023/01/15 09:24:20;;;;;;;18.05;12.15;;;6.70;87.20;;;;;;10776251;33;20012;-74
2023/01/15 09:30:22;;;;;;;17.02;11.32;;;6.70;87.10;;;;;;10789167;33;20032;-74
2023/01/15 09:36:32;;;;;;;16.98;12.75;;;6.80;87.10;;;;;;10789010;33;20047;-74
2023/01/15 09:42:34;;;;;;;15.07;10.23;;;6.80;87.20;;;;;;10771043;32;20028;-73
2023/01/15 09:49:04;;;;;;;17.02;10.98;;;6.90;87.10;;;;;;10788691;33;20025;-74
2023/01/15 09:55:24;;;;;;;14.48;11.55;;;7.00;87.10;;;;;;10787636;33;20051;-74
2023/01/15 10:01:30;;;;;;;11.93;8.85;;;7.00;87.00;;;;;;10785799;33;20059;-73
2023/01/15 10:07:48;;;;;;;12.90;9.10;;;7.00;87.10;;;;;;10788255;33;20044;-76
2023/01/15 10:14:04;;;;;;;26.55;21.50;;;7.10;87.10;;;;;;10774090;32;20046;-76
2023/01/15 10:20:22;;;;;;;20.62;15.02;;;7.10;87.40;;;;;;10787642;33;20060;-77
2023/01/15 10:26:47;;;;;;;17.12;11.88;;;7.00;87.60;;;;;;10787713;33;20013;-77
2023/01/15 10:32:55;;;;;;;20.95;16.83;;;7.10;87.60;;;;;;10783680;33;20357;-77
2023/01/15 10:39:13;;;;;;;19.40;14.38;;;7.20;87.60;;;;;;10787426;33;20442;-76
2023/01/15 10:45:30;;;;;;;14.60;10.80;;;7.20;87.50;;;;;;10787257;33;20049;-77
2023/01/15 10:51:52;;;;;;;17.00;12.80;;;7.30;87.30;;;;;;10786220;33;20051;-76
2023/01/15 10:58:10;;;;;;;22.05;13.77;;;7.30;87.20;;;;;;10788777;33;20025;-77
2023/01/15 11:04:12;;;;;;;16.50;10.27;;;7.40;87.10;;;;;;10786801;33;20012;-77
2023/01/15 11:10:19;;;;;;;18.98;12.55;;;7.50;87.10;;;;;;10773215;33;20058;-77
2023/01/15 11:22:45;;;;;;;15.82;12.70;;;7.60;86.90;;;;;;10786543;33;20410;-77
2023/01/15 11:28:48;;;;;;;16.77;11.63;;;7.50;86.90;;;;;;10788765;33;20020;-77
2023/01/15 11:34:59;;;;;;;22.77;18.00;;;7.50;87.00;;;;;;10792491;33;20039;-77
2023/01/15 11:41:04;;;;;;;18.15;14.05;;;7.50;87.20;;;;;;10792516;33;20043;-77
2023/01/15 11:53:37;;;;;;;17.65;13.57;;;7.50;87.50;;;;;;10756159;33;20013;-75
2023/01/15 11:59:46;;;;;;;20.15;13.23;;;7.40;87.60;;;;;;10755243;33;20395;-75
2023/01/15 12:06:01;;;;;;;;;;;7.40;87.60;;;;;;10755838;33;20360;-76
2023/01/15 12:12:28;;;;;;;29.52;23.80;;;7.40;87.60;;;;;;10755156;33;20242;-74
2023/01/15 12:18:53;;;;;;;18.50;15.65;;;7.50;87.70;;;;;;10754886;33;20017;-73
2023/01/15 12:25:16;;;;;;;21.40;17.00;;;7.50;87.80;;;;;;10610306;33;20042;-73
2023/01/15 12:31:50;;;;;;;19.65;13.20;;;7.50;88.00;;;;;;10630398;33;20153;-73
2023/01/15 12:38:04;;;;;;;25.58;20.77;;;7.50;88.00;;;;;;10641213;33;20056;-73
2023/01/15 12:50:49;;;;;;;19.83;13.25;;;7.50;88.20;;;;;;10630350;33;20068;-73
2023/01/15 12:57:02;;;;;;;20.73;16.62;;;7.60;88.10;;;;;;10641593;33;20021;-73
2023/01/15 13:03:29;;;;;;;17.92;13.93;;;7.60;88.10;;;;;;10710911;33;20051;-74
2023/01/15 13:09:39;;;;;;;15.05;10.65;;;7.50;88.20;;;;;;10709963;33;20158;-74
2023/01/15 13:15:49;;;;;;;17.40;13.25;;;7.50;88.20;;;;;;10786040;33;20020;-73
2023/01/15 13:21:57;;;;;;;15.98;12.35;;;7.50;88.30;;;;;;10789565;33;20055;-73
2023/01/15 13:28:14;;;;;;;14.65;9.85;;;7.50;88.50;;;;;;10789364;33;20024;-73
2023/01/15 13:34:30;;;;;;;16.67;11.25;;;7.50;88.50;;;;;;10776240;33;20032;-73
2023/01/15 13:40:38;;;;;;;13.82;10.57;;;7.50;88.40;;;;;;10786201;33;20028;-73
2023/01/15 13:46:40;;;;;;;13.43;10.27;;;7.50;88.40;;;;;;10786160;33;20036;-73
2023/01/15 13:52:43;;;;;;;18.35;13.95;;;7.50;88.40;;;;;;10786863;33;20024;-74
2023/01/15 13:58:56;;;;;;;17.73;12.55;;;7.60;88.40;;;;;;10784764;33;20047;-73
2023/01/15 14:04:59;;;;;;;14.15;9.20;;;7.60;88.50;;;;;;10788259;33;20398;-73
2023/01/15 14:11:02;;;;;;;15.73;11.82;;;7.60;88.50;;;;;;10788091;33;20390;-72
2023/01/15 14:17:35;;;;;;;20.33;16.15;;;7.60;88.50;;;;;;10772658;33;20055;-72
2023/01/15 14:23:59;;;;;;;19.62;13.10;;;7.50;88.60;;;;;;10786873;33;20033;-73
2023/01/15 14:30:23;;;;;;;12.88;10.32;;;7.50;88.70;;;;;;10783925;33;20047;-73
2023/01/15 14:36:29;;;;;;;17.85;12.95;;;7.60;88.70;;;;;;10787641;33;20051;-72
2023/01/15 14:49:03;;;;;;;17.12;12.68;;;7.70;88.60;;;;;;10787342;33;20354;-73
2023/01/15 14:55:09;;;;;;;16.08;13.50;;;7.70;88.60;;;;;;10774062;33;20028;-73
2023/01/15 15:01:31;;;;;;;14.85;10.38;;;7.70;88.60;;;;;;10787915;33;20047;-73
2023/01/15 15:07:38;;;;;;;16.30;11.95;;;7.60;88.60;;;;;;10794105;33;20043;-73
2023/01/15 15:13:45;;;;;;;14.15;10.20;;;7.60;88.70;;;;;;10791542;33;20024;-73
2023/01/15 15:19:55;;;;;;;19.55;15.10;;;7.50;88.70;;;;;;10789093;33;20048;-73
2023/01/15 15:26:19;;;;;;;19.48;16.62;;;7.60;88.80;;;;;;10789411;33;20059;-73
2023/01/15 15:32:23;;;;;;;17.92;14.02;;;7.50;88.80;;;;;;10642059;33;20059;-73
2023/01/15 15:38:26;;;;;;;26.62;20.33;;;7.40;89.00;;;;;;10643684;33;20025;-74
2023/01/15 15:51:22;;;;;;;16.58;13.10;;;7.50;89.10;;;;;;10644540;33;20056;-73
2023/01/15 15:57:26;;;;;;;19.48;13.52;;;7.50;89.00;;;;;;10640359;33;20048;-74
2023/01/15 16:03:31;;;;;;;15.90;12.45;;;7.50;88.90;;;;;;10643712;33;20332;-74
2023/01/15 16:09:33;;;;;;;18.75;15.10;;;7.50;88.90;;;;;;10762503;33;20055;-74
2023/01/15 16:15:39;;;;;;;18.23;12.40;;;7.50;88.90;;;;;;10787785;33;20047;-73
2023/01/15 16:21:41;;;;;;;17.17;13.40;;;7.50;89.00;;;;;;10795715;27;20040;-74
2023/01/15 16:27:44;;;;;;;17.05;11.88;;;7.50;88.90;;;;;;10791281;33;20043;-74
2023/01/15 16:33:46;;;;;;;19.48;14.82;;;7.60;88.80;;;;;;10791059;33;20017;-74
2023/01/15 16:39:48;;;;;;;23.30;13.05;;;7.50;88.70;;;;;;10777444;33;20078;-74
2023/01/15 16:46:17;;;;;;;17.35;13.85;;;7.50;88.70;;;;;;10790719;33;20043;-73
2023/01/15 16:52:47;;;;;;;18.67;14.25;;;7.50;88.80;;;;;;10790415;33;20052;-74
2023/01/15 16:58:49;;;;;;;;;;;7.60;88.70;;;;;;10790742;33;20071;-73
2023/01/15 17:04:51;;;;;;;29.50;22.35;;;7.60;88.70;;;;;;10786967;33;19942;-73
2023/01/15 17:11:00;;;;;;;17.35;13.60;;;7.50;88.70;;;;;;10789996;33;20051;-73
2023/01/15 17:17:29;;;;;;;36.30;27.98;;;7.50;88.90;;;;;;10789781;33;20043;-73
2023/01/15 17:23:34;;;;;;;23.45;18.65;;;7.50;89.00;;;;;;10761945;33;20054;-73
2023/01/15 17:29:36;;;;;;;22.45;17.33;;;7.40;89.10;;;;;;10788415;33;20055;-73
2023/01/15 17:35:41;;;;;;;20.98;15.63;;;7.40;89.10;;;;;;10789304;33;20056;-73
2023/01/15 17:41:43;;;;;;;22.20;18.55;;;7.40;89.20;;;;;;10788152;33;20066;-73
2023/01/15 17:47:45;;;;;;;32.70;26.73;;;7.40;89.30;;;;;;10788922;33;20020;-73
2023/01/15 17:53:47;;;;;;;29.50;24.45;;;7.40;89.30;;;;;;10788801;33;20020;-73
2023/01/15 18:06:15;;;;;;;22.77;20.08;;;7.50;89.30;;;;;;10788343;33;20035;-73
2023/01/15 18:12:17;;;;;;;20.45;15.77;;;7.50;89.30;;;;;;10787603;33;20023;-73
2023/01/15 18:18:19;;;;;;;21.95;15.68;;;7.50;89.20;;;;;;10787825;33;20322;-73
2023/01/15 18:24:22;;;;;;;18.25;13.05;;;7.50;89.30;;;;;;10774909;33;20024;-73
2023/01/15 18:30:24;;;;;;;22.08;14.85;;;7.50;89.30;;;;;;10785283;33;20020;-73
2023/01/15 18:36:26;;;;;;;19.98;15.63;;;7.50;89.30;;;;;;10786255;33;20043;-73
2023/01/15 18:48:49;;;;;;;23.55;20.12;;;7.40;89.30;;;;;;10786387;33;20068;-73
2023/01/15 18:54:51;;;;;;;40.63;33.45;;;7.40;89.40;;;;;;10799483;33;20327;-73
2023/01/15 19:00:53;;;;;;;20.62;17.67;;;7.40;89.50;;;;;;10796564;33;20398;-74
2023/01/15 19:06:55;;;;;;;29.52;22.58;;;7.40;89.50;;;;;;10786226;33;20020;-73
2023/01/15 19:13:00;;;;;;;27.30;22.52;;;7.40;89.60;;;;;;10786031;33;20028;-73
2023/01/15 19:19:02;;;;;;;19.90;15.52;;;7.30;89.70;;;;;;10798901;33;20020;-73
2023/01/15 19:25:05;;;;;;;27.25;19.08;;;7.40;89.70;;;;;;10798760;33;20051;-73
2023/01/15 19:37:31;;;;;;;29.02;18.83;;;7.50;89.50;;;;;;10781421;32;20032;-73
2023/01/15 19:56:14;;;;;;;24.30;18.75;;;7.50;89.60;;;;;;10790400;33;20020;-74
2023/01/15 20:02:16;;;;;;;24.35;19.60;;;7.50;89.60;;;;;;10790362;33;20024;-75
2023/01/15 20:08:18;;;;;;;29.52;24.33;;;7.40;89.60;;;;;;10778386;33;20062;-75
2023/01/15 20:14:20;;;;;;;31.35;26.35;;;7.40;89.60;;;;;;10791740;33;20063;-75
2023/01/15 20:20:24;;;;;;;37.17;31.30;;;7.40;89.60;;;;;;10774481;33;20035;-76
2023/01/15 20:26:26;;;;;;;21.92;16.95;;;7.30;89.60;;;;;;10775582;33;20052;-77
2023/01/15 20:32:28;;;;;;;22.85;17.95;;;7.30;89.60;;;;;;10790992;33;20020;-77
2023/01/15 20:38:31;;;;;;;24.58;18.25;;;7.40;89.60;;;;;;10791099;33;20027;-77
2023/01/15 20:50:59;;;;;;;31.75;24.55;;;7.40;89.60;;;;;;10789308;33;20346;-77
2023/01/15 20:57:01;;;;;;;22.50;16.87;;;7.40;89.70;;;;;;10764295;32;20292;-77
2023/01/15 21:03:04;;;;;;;30.95;27.60;;;7.40;89.80;;;;;;10772629;33;20028;-79
2023/01/15 21:09:06;;;;;;;22.08;17.75;;;7.40;89.80;;;;;;10786474;33;20051;-77
2023/01/15 21:15:10;;;;;;;21.17;18.10;;;7.30;89.80;;;;;;10790019;33;20046;-77
2023/01/15 21:21:15;;;;;;;17.08;14.13;;;7.30;89.90;;;;;;10776399;33;20016;-77
2023/01/15 21:27:17;;;;;;;22.87;17.05;;;7.40;89.90;;;;;;10788525;33;20029;-77
2023/01/15 21:33:19;;;;;;;18.75;15.95;;;7.40;89.80;;;;;;10763887;33;20495;-77
2023/01/15 21:39:21;;;;;;;22.90;18.48;;;7.40;89.80;;;;;;10789305;33;20020;-78
2023/01/15 21:45:23;;;;;;;22.52;18.30;;;7.40;89.80;;;;;;10789167;33;20043;-77
2023/01/15 21:51:25;;;;;;;18.08;16.10;;;7.40;89.80;;;;;;10788831;33;20023;-77
2023/01/15 21:57:28;;;;;;;16.40;12.70;;;7.40;89.90;;;;;;10772101;33;20054;-74
2023/01/15 22:03:30;;;;;;;17.40;13.20;;;7.50;89.90;;;;;;10789092;33;20024;-73
2023/01/15 22:09:32;;;;;;;26.05;21.33;;;7.50;89.60;;;;;;10784569;33;20319;-73
2023/01/15 22:15:34;;;;;;;24.25;18.30;;;7.50;89.60;;;;;;10787754;33;20350;-72
2023/01/15 22:21:37;;;;;;;17.80;13.90;;;7.40;89.70;;;;;;10788168;33;20066;-72
2023/01/15 22:27:42;;;;;;;17.62;12.82;;;7.40;89.80;;;;;;10774467;33;20394;-72
2023/01/15 22:33:45;;;;;;;17.35;12.80;;;7.40;89.70;;;;;;10787789;33;20288;-72
2023/01/15 22:39:48;;;;;;;17.58;12.23;;;7.40;89.60;;;;;;10787711;33;20084;-72
2023/01/15 22:45:50;;;;;;;19.50;13.68;;;7.40;89.60;;;;;;10787594;33;20020;-72
2023/01/15 22:51:53;;;;;;;21.65;17.75;;;7.40;89.50;;;;;;10787407;33;20028;-71
2023/01/15 22:57:55;;;;;;;20.25;14.13;;;7.30;89.50;;;;;;10787252;33;20016;-72
2023/01/15 23:03:57;;;;;;;25.50;16.58;;;7.30;89.50;;;;;;10773667;33;20311;-72
2023/01/15 23:09:59;;;;;;;15.70;10.50;;;7.30;89.60;;;;;;10786962;33;20043;-72
2023/01/15 23:16:02;;;;;;;14.02;10.48;;;7.40;89.60;;;;;;10786857;33;20308;-72
2023/01/15 23:22:04;;;;;;;16.27;11.70;;;7.40;89.50;;;;;;10786696;33;20432;-76
2023/01/15 23:28:06;;;;;;;16.52;10.85;;;7.40;89.50;;;;;;10792696;33;20016;-77
2023/01/15 23:34:09;;;;;;;25.70;20.02;;;7.40;89.60;;;;;;10792765;33;20021;-77
2023/01/15 23:40:11;;;;;;;29.98;22.55;;;7.40;89.60;;;;;;10789916;33;20028;-76
2023/01/15 23:52:22;;;;;;;17.83;12.50;;;7.40;89.70;;;;;;10792307;33;20024;-76
2023/01/15 23:58:24;;;;;;;14.02;10.95;;;7.30;89.50;;;;;;10779075;33;20043;-76
